Terminal Aerodrome Forecast
Issued by NWS

Home | Current Version | Previous Version | Graphics & Text | Print | Product List | Glossary On
Versions: 1 2 3 4 5 6 7 8 9 10 11 12 13 14 15 16 17 18 19 20 21 22
000
FTUS43 KDDC 210534
TAFGCK
TAF
KGCK 210534Z 2106/2206 09012G18KT P6SM -SHRA OVC015
     FM210800 06012G19KT 5SM -SHRA OVC008
     FM211700 03012KT 5SM BR OVC008=

USA.gov is the U.S. government's official web portal to all federal, state and local government web resources and services.